createdAt,value
2023-03-25T00:00:17.597Z,-5.10
2023-03-25T00:02:46.245Z,-5.17
2023-03-25T00:05:17.058Z,-5.18
2023-03-25T00:07:45.648Z,-5.17
2023-03-25T00:10:14.228Z,-5.19
2023-03-25T00:12:42.731Z,-5.55
2023-03-25T00:15:11.545Z,-5.28
2023-03-25T00:17:38.840Z,-5.26
2023-03-25T00:20:09.858Z,-5.30
2023-03-25T00:22:41.277Z,-5.34
2023-03-25T00:25:17.628Z,-5.32
2023-03-25T00:27:47.047Z,-5.40
2023-03-25T00:30:16.050Z,-5.37
2023-03-25T00:32:45.981Z,-5.39
2023-03-25T00:35:14.026Z,-5.41
2023-03-25T00:37:41.369Z,-5.70
2023-03-25T00:40:09.079Z,-5.45
2023-03-25T00:42:36.108Z,-5.67
2023-03-25T00:45:03.984Z,-5.50
2023-03-25T00:47:31.510Z,-5.53
2023-03-25T00:49:58.630Z,-5.72
2023-03-25T00:52:25.768Z,-5.58
2023-03-25T00:54:53.948Z,-5.59
2023-03-25T00:57:22.383Z,-5.61
2023-03-25T00:59:51.443Z,-5.65
2023-03-25T01:02:19.022Z,-5.81
2023-03-25T01:04:46.836Z,-5.67
2023-03-25T01:07:16.031Z,-5.72
2023-03-25T01:09:46.526Z,-5.71
2023-03-25T01:12:15.666Z,-5.74
2023-03-25T01:14:43.054Z,-5.77
2023-03-25T01:17:10.303Z,-5.80
2023-03-25T01:19:37.422Z,-5.80
2023-03-25T01:22:04.285Z,-5.81
2023-03-25T01:24:31.533Z,-5.84
2023-03-25T01:26:58.485Z,-5.85
2023-03-25T01:29:28.384Z,-5.85
2023-03-25T01:31:56.102Z,-5.99
2023-03-25T01:34:23.639Z,-5.90
2023-03-25T01:36:51.012Z,-5.91
2023-03-25T01:39:19.461Z,-5.94
2023-03-25T01:41:50.582Z,-5.96
2023-03-25T01:44:22.087Z,-5.97
2023-03-25T01:46:53.927Z,-5.98
2023-03-25T01:49:26.996Z,-6.01
2023-03-25T01:51:59.765Z,-6.03
2023-03-25T01:54:27.530Z,-6.05
2023-03-25T01:56:56.066Z,-6.07
2023-03-25T01:59:26.537Z,-6.11
2023-03-25T02:01:56.700Z,-6.13
2023-03-25T02:04:51.848Z,-6.14
2023-03-25T02:07:19.913Z,-6.23
2023-03-25T02:09:46.986Z,-6.37
2023-03-25T02:12:14.157Z,-6.25
2023-03-25T02:14:41.366Z,-6.24
2023-03-25T02:17:25.598Z,-6.27
2023-03-25T02:20:08.471Z,-6.29
2023-03-25T02:23:02.049Z,-6.33
2023-03-25T02:25:50.687Z,-6.35
2023-03-25T02:28:29.960Z,-6.39
2023-03-25T02:31:15.939Z,-6.41
2023-03-25T02:34:22.438Z,-6.44
2023-03-25T02:37:02.296Z,-6.57
2023-03-25T02:39:52.723Z,-6.52
2023-03-25T02:42:34.993Z,-6.56
2023-03-25T02:45:04.837Z,-6.59
2023-03-25T02:47:59.969Z,-6.64
2023-03-25T02:50:36.114Z,-6.65
2023-03-25T02:53:10.918Z,-6.68
2023-03-25T02:55:41.906Z,-6.76
2023-03-25T02:58:13.402Z,-7.27
2023-03-25T03:00:40.807Z,-6.75
2023-03-25T03:03:09.105Z,-6.86
2023-03-25T03:05:40.775Z,-6.80
2023-03-25T03:08:19.197Z,-6.83
2023-03-25T03:11:27.629Z,-6.85
2023-03-25T03:14:13.987Z,-6.88
2023-03-25T03:16:50.266Z,-6.89
2023-03-25T03:19:48.885Z,-6.93
2023-03-25T03:22:25.826Z,-6.95
2023-03-25T03:25:04.844Z,-6.99
2023-03-25T03:27:34.664Z,-7.08
2023-03-25T03:30:11.459Z,-7.27
2023-03-25T03:32:55.425Z,-7.05
2023-03-25T03:35:28.332Z,-7.18
2023-03-25T03:38:03.761Z,-7.07
2023-03-25T03:40:33.610Z,-7.09
2023-03-25T03:43:04.722Z,-7.18
2023-03-25T03:45:36.683Z,-7.13
2023-03-25T03:48:10.783Z,-7.12
2023-03-25T03:50:43.054Z,-7.24
2023-03-25T03:53:18.783Z,-7.19
2023-03-25T03:56:09.438Z,-7.48
2023-03-25T03:58:43.266Z,-7.17
2023-03-25T04:01:46.292Z,-7.18
2023-03-25T04:04:30.290Z,-7.20
2023-03-25T04:07:14.838Z,-7.22
2023-03-25T04:10:08.492Z,-7.23
2023-03-25T04:12:41.737Z,-7.28
2023-03-25T04:15:09.112Z,-7.30
2023-03-25T04:17:36.088Z,-7.35
2023-03-25T04:20:09.045Z,-7.28
2023-03-25T04:22:38.880Z,-7.43
2023-03-25T04:25:07.057Z,-7.40
2023-03-25T04:27:37.896Z,-7.31
2023-03-25T04:30:06.481Z,-7.31
2023-03-25T04:32:34.969Z,-7.30
2023-03-25T04:35:02.502Z,-7.31
2023-03-25T04:37:29.525Z,-7.33
2023-03-25T04:40:00.154Z,-7.30
2023-03-25T04:42:33.005Z,-7.31
2023-03-25T04:45:00.521Z,-7.30
2023-03-25T04:47:28.248Z,-7.51
2023-03-25T04:49:55.611Z,-7.54
2023-03-25T04:52:22.697Z,-7.32
2023-03-25T04:54:49.646Z,-7.31
2023-03-25T04:57:16.639Z,-7.31
2023-03-25T04:59:44.030Z,-7.32
2023-03-25T05:02:13.744Z,-7.66
2023-03-25T05:04:47.527Z,-7.32
2023-03-25T05:07:16.531Z,-7.36
2023-03-25T05:09:43.843Z,-7.79
2023-03-25T05:12:11.659Z,-7.32
2023-03-25T05:14:38.733Z,-7.33
2023-03-25T05:17:05.758Z,-7.33
2023-03-25T05:19:35.463Z,-7.41
2023-03-25T05:22:03.295Z,-7.32
2023-03-25T05:24:30.567Z,-7.32
2023-03-25T05:26:57.728Z,-7.35
2023-03-25T05:29:24.766Z,-7.33
2023-03-25T05:31:51.745Z,-7.33
2023-03-25T05:34:20.863Z,-7.42
2023-03-25T05:36:47.864Z,-7.32
2023-03-25T05:39:15.406Z,-7.33
2023-03-25T05:41:42.542Z,-7.31
2023-03-25T05:44:10.258Z,-7.31
2023-03-25T05:46:37.293Z,-7.31
2023-03-25T05:49:04.460Z,-7.30
2023-03-25T05:51:37.626Z,-7.31
2023-03-25T05:54:11.832Z,-7.29
2023-03-25T05:56:39.498Z,-7.29
2023-03-25T05:59:06.757Z,-7.33
2023-03-25T06:01:35.021Z,-7.28
2023-03-25T06:04:03.120Z,-7.25
2023-03-25T06:06:34.148Z,-7.25
2023-03-25T06:09:03.018Z,-7.24
2023-03-25T06:11:30.144Z,-7.25
2023-03-25T06:13:57.150Z,-7.24
2023-03-25T06:16:30.185Z,-7.22
2023-03-25T06:19:00.290Z,-7.21
2023-03-25T06:21:29.705Z,-7.20
2023-03-25T06:23:58.613Z,-7.35
2023-03-25T06:26:26.487Z,-7.43
2023-03-25T06:28:54.693Z,-7.15
2023-03-25T06:31:28.368Z,-7.25
2023-03-25T06:33:56.307Z,-7.13
2023-03-25T06:36:25.460Z,-7.29
2023-03-25T06:38:53.971Z,-7.13
2023-03-25T06:41:25.827Z,-7.39
2023-03-25T06:44:13.407Z,-7.43
2023-03-25T06:46:40.396Z,-7.03
2023-03-25T06:49:18.538Z,-7.08
2023-03-25T06:51:45.890Z,-7.01
2023-03-25T06:54:12.777Z,-7.31
2023-03-25T06:56:39.925Z,-6.97
2023-03-25T06:59:07.025Z,-6.94
2023-03-25T07:01:33.980Z,-6.93
2023-03-25T07:04:01.207Z,-6.92
2023-03-25T07:06:28.148Z,-6.98
2023-03-25T07:08:55.172Z,-6.87
2023-03-25T07:11:30.554Z,-6.84
2023-03-25T07:13:57.786Z,-6.89
2023-03-25T07:16:27.649Z,-6.80
2023-03-25T07:18:56.886Z,-6.79
2023-03-25T07:21:23.838Z,-6.87
2023-03-25T07:23:51.083Z,-7.17
2023-03-25T07:26:18.695Z,-6.80
2023-03-25T07:28:46.215Z,-6.66
2023-03-25T07:31:14.645Z,-6.69
2023-03-25T07:33:41.905Z,-6.80
2023-03-25T07:36:11.438Z,-6.62
2023-03-25T07:38:38.784Z,-6.56
2023-03-25T07:41:13.196Z,-6.54
2023-03-25T07:43:49.704Z,-6.50
2023-03-25T07:46:26.847Z,-6.48
2023-03-25T07:48:53.829Z,-6.51
2023-03-25T07:51:20.744Z,-6.41
2023-03-25T07:53:47.822Z,-6.39
2023-03-25T07:56:15.662Z,-6.36
2023-03-25T07:58:44.405Z,-6.34
2023-03-25T08:01:11.855Z,-6.28
2023-03-25T08:03:39.931Z,-6.25
2023-03-25T08:06:07.991Z,-6.42
2023-03-25T08:08:35.435Z,-6.18
2023-03-25T08:11:02.516Z,-6.15
2023-03-25T08:13:29.964Z,-6.11
2023-03-25T08:15:57.273Z,-6.07
2023-03-25T08:18:24.837Z,-6.12
2023-03-25T08:20:52.167Z,-6.08
2023-03-25T08:23:20.326Z,-6.24
2023-03-25T08:25:50.052Z,-5.94
2023-03-25T08:28:22.127Z,-5.95
2023-03-25T08:30:55.348Z,-5.93
2023-03-25T08:33:34.493Z,-5.82
2023-03-25T08:36:02.423Z,-5.78
2023-03-25T08:38:34.423Z,-5.74
2023-03-25T08:41:02.606Z,-5.79
2023-03-25T08:43:29.735Z,-5.66
2023-03-25T08:45:57.035Z,-5.62
2023-03-25T08:48:24.904Z,-5.98
2023-03-25T08:50:51.908Z,-5.53
2023-03-25T08:53:18.864Z,-5.51
2023-03-25T08:55:45.866Z,-5.43
2023-03-25T08:58:12.934Z,-5.38
2023-03-25T09:00:39.930Z,-5.36
2023-03-25T09:03:07.213Z,-5.29
2023-03-25T09:05:57.013Z,-5.72
2023-03-25T09:08:44.064Z,-5.16
2023-03-25T09:11:37.363Z,-5.08
2023-03-25T09:14:25.127Z,-5.03
2023-03-25T09:17:12.080Z,-4.96
2023-03-25T09:19:59.155Z,-4.94
2023-03-25T09:22:46.097Z,-4.83
2023-03-25T09:25:33.055Z,-4.74
2023-03-25T09:28:19.914Z,-4.67
2023-03-25T09:31:07.014Z,-4.99
2023-03-25T09:33:53.932Z,-4.50
2023-03-25T09:36:40.827Z,-4.44
2023-03-25T09:39:27.686Z,-4.40
2023-03-25T09:42:21.797Z,-4.23
2023-03-25T09:45:30.546Z,-4.13
2023-03-25T09:49:08.886Z,-4.01
2023-03-25T09:51:56.451Z,-3.88
2023-03-25T09:54:49.909Z,-3.77
2023-03-25T09:57:46.533Z,-3.64
2023-03-25T10:00:42.542Z,-3.49
2023-03-25T10:03:49.893Z,-3.43
2023-03-25T10:06:39.636Z,-3.18
2023-03-25T10:09:57.197Z,-3.14
2023-03-25T10:12:58.479Z,-2.82
2023-03-25T10:15:51.369Z,-2.68
2023-03-25T10:18:59.848Z,-2.53
2023-03-25T10:21:49.618Z,-2.37
2023-03-25T10:24:45.629Z,-2.22
2023-03-25T10:28:05.093Z,-2.07
2023-03-25T10:30:58.761Z,-1.91
2023-03-25T10:34:01.008Z,-1.78
2023-03-25T10:36:54.348Z,-1.62
2023-03-25T10:39:42.655Z,-1.49
2023-03-25T10:42:53.508Z,-1.41
2023-03-25T10:45:40.833Z,-1.22
2023-03-25T10:48:32.788Z,-1.07
2023-03-25T10:51:30.305Z,-0.95
2023-03-25T10:54:18.607Z,-0.81
2023-03-25T10:57:08.386Z,-0.67
2023-03-25T11:00:07.482Z,-0.55
2023-03-25T11:02:54.569Z,-0.74
2023-03-25T11:05:44.831Z,-0.31
2023-03-25T11:08:32.649Z,-0.29
2023-03-25T11:11:19.723Z,-0.16
2023-03-25T11:14:06.479Z,-0.04
2023-03-25T11:17:00.225Z,-0.01
2023-03-25T11:20:12.176Z,0.11
2023-03-25T11:23:07.433Z,0.11
2023-03-25T11:25:59.732Z,0.29
2023-03-25T11:29:00.111Z,0.39
2023-03-25T11:31:49.078Z,0.49
2023-03-25T11:34:43.027Z,0.57
2023-03-25T11:37:41.922Z,0.43
2023-03-25T11:40:35.784Z,0.68
2023-03-25T11:43:22.968Z,0.72
2023-03-25T11:46:10.591Z,0.75
2023-03-25T11:49:00.774Z,0.81
2023-03-25T11:51:52.922Z,0.87
2023-03-25T11:54:40.154Z,0.92
2023-03-25T11:57:32.855Z,0.88
2023-03-25T12:00:42.948Z,1.03
2023-03-25T12:03:33.204Z,1.07
2023-03-25T12:06:37.303Z,1.09
2023-03-25T12:09:30.811Z,1.05
2023-03-25T12:12:46.994Z,1.22
2023-03-25T12:15:42.560Z,1.30
2023-03-25T12:18:59.006Z,1.35
2023-03-25T12:22:00.970Z,1.39
2023-03-25T12:24:56.909Z,1.42
2023-03-25T12:27:52.072Z,1.49
2023-03-25T12:31:07.178Z,1.55
2023-03-25T12:34:03.239Z,1.36
2023-03-25T12:37:05.279Z,1.65
2023-03-25T12:39:52.622Z,1.70
2023-03-25T12:42:57.964Z,1.76
2023-03-25T12:45:52.735Z,1.83
2023-03-25T12:51:59.779Z,1.99
2023-03-25T12:54:59.667Z,2.06
2023-03-25T12:58:05.033Z,2.15
2023-03-25T13:01:21.242Z,2.21
2023-03-25T13:04:11.074Z,2.30
2023-03-25T13:06:58.046Z,2.39
2023-03-25T13:10:11.042Z,2.43
2023-03-25T13:13:10.646Z,2.48
2023-03-25T13:16:04.141Z,2.51
2023-03-25T13:19:06.386Z,2.56
2023-03-25T13:21:57.851Z,2.42
2023-03-25T13:24:59.690Z,2.71
2023-03-25T13:27:53.122Z,2.75
2023-03-25T13:31:02.234Z,2.66
2023-03-25T13:33:54.303Z,2.82
2023-03-25T13:37:03.282Z,2.83
2023-03-25T13:40:08.253Z,2.41
2023-03-25T13:43:10.198Z,2.90
2023-03-25T13:46:19.803Z,2.94
2023-03-25T13:49:15.642Z,2.96
2023-03-25T13:52:03.599Z,2.97
2023-03-25T13:54:56.595Z,2.98
2023-03-25T13:58:01.896Z,2.95
2023-03-25T14:01:07.684Z,2.91
2023-03-25T14:04:09.792Z,2.87
2023-03-25T14:07:24.597Z,2.71
2023-03-25T14:10:36.186Z,2.79
2023-03-25T14:13:26.994Z,2.66
2023-03-25T14:16:23.157Z,2.33
2023-03-25T14:19:14.991Z,2.57
2023-03-25T14:22:06.988Z,2.49
2023-03-25T14:24:55.854Z,2.42
2023-03-25T14:27:49.899Z,2.34
2023-03-25T14:30:41.032Z,2.26
2023-03-25T14:33:30.126Z,2.16
2023-03-25T14:36:17.027Z,2.12
2023-03-25T14:39:11.934Z,2.05
2023-03-25T14:42:24.076Z,2.04
2023-03-25T14:45:16.077Z,1.83
2023-03-25T14:48:24.878Z,1.91
2023-03-25T14:51:33.783Z,1.75
2023-03-25T14:54:23.446Z,1.76
2023-03-25T14:57:26.559Z,1.68
2023-03-25T15:00:21.770Z,1.62
2023-03-25T15:03:28.673Z,1.51
2023-03-25T15:06:17.129Z,1.47
2023-03-25T15:09:16.231Z,1.46
2023-03-25T15:12:11.441Z,1.40
2023-03-25T15:15:02.741Z,1.32
2023-03-25T15:18:03.910Z,1.23
2023-03-25T15:20:52.195Z,1.17
2023-03-25T15:23:39.276Z,1.11
2023-03-25T15:26:33.999Z,0.93
2023-03-25T15:29:26.750Z,0.99
2023-03-25T15:32:28.612Z,0.77
2023-03-25T15:35:21.259Z,0.95
2023-03-25T15:38:32.540Z,0.91
2023-03-25T15:41:50.349Z,0.85
2023-03-25T15:45:09.666Z,0.74
2023-03-25T15:48:13.525Z,0.63
2023-03-25T15:51:27.241Z,0.62
2023-03-25T15:54:59.504Z,-0.01
2023-03-25T15:57:53.871Z,0.36
2023-03-25T16:00:46.056Z,0.59
2023-03-25T16:03:41.204Z,0.61
2023-03-25T16:06:36.063Z,0.60
2023-03-25T16:09:23.798Z,0.59
2023-03-25T16:12:11.057Z,0.37
2023-03-25T16:14:58.414Z,0.58
2023-03-25T16:17:51.434Z,0.42
2023-03-25T16:20:43.350Z,0.23
2023-03-25T16:23:39.939Z,0.46
2023-03-25T16:26:27.119Z,0.49
2023-03-25T16:29:14.089Z,0.50
2023-03-25T16:32:01.103Z,0.48
2023-03-25T16:34:54.536Z,0.46
2023-03-25T16:37:42.271Z,0.45
2023-03-25T16:40:39.213Z,0.45
2023-03-25T16:43:33.459Z,0.44
2023-03-25T16:46:23.879Z,0.24
2023-03-25T16:49:13.527Z,0.46
2023-03-25T16:52:00.972Z,0.47
2023-03-25T16:54:51.027Z,-0.08
2023-03-25T16:57:45.642Z,0.46
2023-03-25T17:00:37.562Z,0.45
2023-03-25T17:03:24.460Z,0.43
2023-03-25T17:06:19.923Z,0.30
2023-03-25T17:09:11.215Z,0.19
2023-03-25T17:11:58.080Z,0.22
2023-03-25T17:14:50.511Z,0.29
2023-03-25T17:18:02.013Z,0.26
2023-03-25T17:20:59.537Z,0.03
2023-03-25T17:23:54.544Z,0.15
2023-03-25T17:26:45.681Z,0.12
2023-03-25T17:29:32.784Z,0.08
2023-03-25T17:32:19.783Z,0.03
2023-03-25T17:35:21.748Z,-0.12
2023-03-25T17:38:10.322Z,-0.09
2023-03-25T17:40:57.262Z,-0.26
2023-03-25T17:43:45.371Z,-0.20
2023-03-25T17:46:37.999Z,-0.26
2023-03-25T17:49:35.172Z,-0.80
2023-03-25T17:52:22.036Z,-0.71
2023-03-25T17:55:08.914Z,-0.51
2023-03-25T17:57:57.146Z,-0.61
2023-03-25T18:00:44.234Z,-0.64
2023-03-25T18:03:39.779Z,-0.98
2023-03-25T18:06:27.210Z,-1.12
2023-03-25T18:09:14.211Z,-1.00
2023-03-25T18:12:01.064Z,-1.13
2023-03-25T18:14:47.997Z,-1.26
2023-03-25T18:17:34.816Z,-1.95
2023-03-25T18:20:21.890Z,-1.96
2023-03-25T18:23:08.872Z,-1.72
2023-03-25T18:25:55.879Z,-1.86
2023-03-25T18:28:42.712Z,-1.99
2023-03-25T18:31:34.602Z,-2.12
2023-03-25T18:34:21.714Z,-2.27
2023-03-25T18:37:08.736Z,-2.38
2023-03-25T18:39:55.584Z,-2.50
2023-03-25T18:42:42.654Z,-2.65
2023-03-25T18:45:30.828Z,-3.01
2023-03-25T18:48:17.926Z,-3.11
2023-03-25T18:51:08.088Z,-3.10
2023-03-25T18:53:54.948Z,-3.25
2023-03-25T18:56:42.123Z,-3.55
2023-03-25T18:59:36.783Z,-3.55
2023-03-25T19:02:23.900Z,-3.65
2023-03-25T19:05:10.867Z,-3.75
2023-03-25T19:07:57.681Z,-3.86
2023-03-25T19:10:48.288Z,-3.97
2023-03-25T19:13:36.135Z,-4.07
2023-03-25T19:16:23.335Z,-4.17
2023-03-25T19:19:10.187Z,-4.26
2023-03-25T19:21:57.255Z,-4.48
2023-03-25T19:24:44.106Z,-4.44
2023-03-25T19:27:30.959Z,-4.52
2023-03-25T19:30:17.861Z,-4.61
2023-03-25T19:33:05.816Z,-4.69
2023-03-25T19:35:52.796Z,-4.83
2023-03-25T19:38:40.497Z,-4.84
2023-03-25T19:41:29.982Z,-4.99
2023-03-25T19:44:16.986Z,-5.03
2023-03-25T19:47:03.868Z,-5.39
2023-03-25T19:49:50.898Z,-5.14
2023-03-25T19:52:37.722Z,-5.21
2023-03-25T19:55:25.627Z,-5.43
2023-03-25T19:58:00.843Z,-5.35
2023-03-25T20:00:48.646Z,-5.42
2023-03-25T20:03:35.731Z,-5.50
2023-03-25T20:06:23.573Z,-5.60
2023-03-25T20:09:10.440Z,-5.65
2023-03-25T20:11:57.589Z,-5.72
2023-03-25T20:14:44.476Z,-5.81
2023-03-25T20:17:31.484Z,-5.86
2023-03-25T20:20:18.695Z,-5.93
2023-03-25T20:23:05.784Z,-6.11
2023-03-25T20:25:52.886Z,-6.39
2023-03-25T20:28:39.980Z,-6.14
2023-03-25T20:31:39.133Z,-6.21
2023-03-25T20:34:26.813Z,-6.28
2023-03-25T20:37:13.807Z,-6.34
2023-03-25T20:40:00.759Z,-6.42
2023-03-25T20:42:47.748Z,-6.47
2023-03-25T20:45:36.986Z,-6.55
2023-03-25T20:48:24.460Z,-6.62
2023-03-25T20:51:22.853Z,-6.70
2023-03-25T20:54:11.599Z,-6.76
2023-03-25T20:56:58.685Z,-7.16
2023-03-25T20:59:45.782Z,-6.93
2023-03-25T21:02:32.773Z,-6.97
2023-03-25T21:05:20.418Z,-7.02
2023-03-25T21:08:07.386Z,-7.13
2023-03-25T21:10:55.856Z,-7.14
2023-03-25T21:13:42.788Z,-7.22
2023-03-25T21:16:30.051Z,-7.28
2023-03-25T21:19:16.971Z,-7.43
2023-03-25T21:22:04.163Z,-7.40
2023-03-25T21:24:51.468Z,-7.47
2023-03-25T21:27:39.444Z,-7.60
2023-03-25T21:30:28.818Z,-8.15
2023-03-25T21:33:15.852Z,-7.65
2023-03-25T21:36:06.698Z,-8.21
2023-03-25T21:38:55.394Z,-8.09
2023-03-25T21:41:42.335Z,-7.83
2023-03-25T21:44:29.732Z,-8.12
2023-03-25T21:47:16.653Z,-7.96
2023-03-25T21:50:03.534Z,-8.01
2023-03-25T21:52:50.406Z,-8.13
2023-03-25T21:55:37.585Z,-8.60
2023-03-25T21:58:24.538Z,-8.42
2023-03-25T22:01:11.794Z,-8.25
2023-03-25T22:04:00.335Z,-8.30
2023-03-25T22:06:50.926Z,-8.36
2023-03-25T22:09:38.200Z,-8.42
2023-03-25T22:12:25.426Z,-8.64
2023-03-25T22:15:12.281Z,-8.53
2023-03-25T22:17:59.510Z,-8.59
2023-03-25T22:20:46.375Z,-8.72
2023-03-25T22:23:33.254Z,-8.71
2023-03-25T22:26:20.256Z,-8.87
2023-03-25T22:29:07.372Z,-8.82
2023-03-25T22:31:56.504Z,-8.87
2023-03-25T22:34:43.655Z,-8.95
2023-03-25T22:37:30.622Z,-9.01
2023-03-25T22:40:17.952Z,-9.10
2023-03-25T22:43:04.857Z,-9.18
2023-03-25T22:45:52.260Z,-9.20
2023-03-25T22:48:39.535Z,-9.29
2023-03-25T22:51:28.897Z,-9.33
2023-03-25T22:54:15.825Z,-9.39
2023-03-25T22:57:03.663Z,-9.46
2023-03-25T22:59:50.634Z,-9.51
2023-03-25T23:02:37.707Z,-9.56
2023-03-25T23:05:25.475Z,-9.71
2023-03-25T23:08:12.627Z,-9.68
2023-03-25T23:11:03.707Z,-9.74
2023-03-25T23:13:50.833Z,-9.79
2023-03-25T23:16:40.999Z,-9.87
2023-03-25T23:19:28.060Z,-9.89
2023-03-25T23:22:15.030Z,-9.95
2023-03-25T23:25:02.162Z,-10.00
2023-03-25T23:27:48.965Z,-10.05
2023-03-25T23:30:35.961Z,-10.12
2023-03-25T23:33:22.896Z,-10.15
2023-03-25T23:36:09.985Z,-10.20
2023-03-25T23:38:56.937Z,-10.92
2023-03-25T23:41:43.845Z,-10.39
2023-03-25T23:44:31.037Z,-10.37
2023-03-25T23:47:18.019Z,-10.61
2023-03-25T23:50:05.074Z,-10.40
2023-03-25T23:52:51.991Z,-10.44
2023-03-25T23:55:40.069Z,-10.63
2023-03-25T23:58:26.926Z,-10.59
